createdAt,value
2023-01-23T00:00:47.575Z,103709.34
2023-01-23T00:03:13.938Z,103712.88
2023-01-23T00:05:40.622Z,103707.53
2023-01-23T00:08:07.114Z,103711.09
2023-01-23T00:10:33.562Z,103703.94
2023-01-23T00:13:00.001Z,103690.63
2023-01-23T00:15:27.424Z,103680.88
2023-01-23T00:17:54.052Z,103675.59
2023-01-23T00:20:20.661Z,103668.47
2023-01-23T00:22:47.215Z,103671.16
2023-01-23T00:25:13.590Z,103672.03
2023-01-23T00:27:39.988Z,103680.03
2023-01-23T00:30:06.886Z,103688.91
2023-01-23T00:32:33.240Z,103690.69
2023-01-23T00:35:00.546Z,103682.69
2023-01-23T00:37:27.001Z,103685.38
2023-01-23T00:39:53.502Z,103691.63
2023-01-23T00:42:20.073Z,103682.69
2023-01-23T00:44:46.500Z,103678.25
2023-01-23T00:47:12.953Z,103685.38
2023-01-23T00:49:39.425Z,103678.25
2023-01-23T00:52:05.862Z,103674.69
2023-01-23T00:54:32.315Z,103665.78
2023-01-23T00:56:58.723Z,103670.28
2023-01-23T00:59:25.130Z,103665.84
2023-01-23T01:01:51.550Z,103669.38
2023-01-23T01:04:18.077Z,103669.38
2023-01-23T01:06:44.523Z,103672.03
2023-01-23T01:09:11.012Z,103669.38
2023-01-23T01:11:37.560Z,103667.63
2023-01-23T01:14:04.152Z,103674.72
2023-01-23T01:16:30.809Z,103673.81
2023-01-23T01:18:57.214Z,103675.63
2023-01-23T01:21:24.217Z,103673.81
2023-01-23T01:23:50.673Z,103680.06
2023-01-23T01:26:18.288Z,103682.75
2023-01-23T01:28:44.697Z,103688.94
2023-01-23T01:31:13.852Z,103691.63
2023-01-23T01:33:41.609Z,103692.53
2023-01-23T01:36:10.208Z,103696.97
2023-01-23T01:38:37.053Z,103696.97
2023-01-23T01:41:04.012Z,103697.88
2023-01-23T01:43:31.840Z,103700.53
2023-01-23T01:46:18.017Z,103696.94
2023-01-23T01:48:50.084Z,103695.16
2023-01-23T01:51:19.626Z,103699.63
2023-01-23T01:53:49.583Z,103701.34
2023-01-23T01:56:18.356Z,103706.69
2023-01-23T01:58:47.272Z,103703.09
2023-01-23T02:01:13.828Z,103708.44
2023-01-23T02:03:40.557Z,103711.13
2023-01-23T02:06:07.782Z,103709.34
2023-01-23T02:08:52.599Z,103710.25
2023-01-23T02:11:19.106Z,103704.91
2023-01-23T02:13:46.019Z,103698.69
2023-01-23T02:16:19.663Z,103701.34
2023-01-23T02:18:50.151Z,103710.25
2023-01-23T02:21:25.254Z,103711.16
2023-01-23T02:24:11.793Z,103720.03
2023-01-23T02:26:41.711Z,103714.72
2023-01-23T02:29:08.443Z,103706.75
2023-01-23T02:31:35.270Z,103709.38
2023-01-23T02:34:01.928Z,103709.38
2023-01-23T02:36:31.515Z,103704.06
2023-01-23T02:39:01.416Z,103711.19
2023-01-23T02:41:31.145Z,103710.28
2023-01-23T02:44:02.200Z,103713.00
2023-01-23T02:46:28.855Z,103716.56
2023-01-23T02:48:55.383Z,103711.28
2023-01-23T02:51:22.651Z,103714.00
2023-01-23T02:53:49.177Z,103713.09
2023-01-23T02:56:16.075Z,103721.16
2023-01-23T02:59:01.741Z,103722.03
2023-01-23T03:01:29.546Z,103722.06
2023-01-23T03:03:56.510Z,103722.94
2023-01-23T03:06:23.954Z,103733.63
2023-01-23T03:08:50.490Z,103732.72
2023-01-23T03:11:19.149Z,103730.94
2023-01-23T03:13:47.007Z,103733.63
2023-01-23T03:16:13.659Z,103744.25
2023-01-23T03:18:53.360Z,103734.50
2023-01-23T03:21:20.703Z,103742.50
2023-01-23T03:23:48.199Z,103734.47
2023-01-23T03:26:15.374Z,103738.91
2023-01-23T03:29:00.228Z,103730.91
2023-01-23T03:31:26.692Z,103727.31
2023-01-23T03:33:53.431Z,103725.53
2023-01-23T03:36:19.930Z,103722.00
2023-01-23T03:39:04.604Z,103726.44
2023-01-23T03:41:31.158Z,103724.66
2023-01-23T03:43:57.537Z,103726.50
2023-01-23T03:46:24.068Z,103722.94
2023-01-23T03:48:50.903Z,103726.50
2023-01-23T03:51:17.343Z,103724.75
2023-01-23T03:53:43.797Z,103734.50
2023-01-23T03:56:10.294Z,103730.94
2023-01-23T03:58:36.775Z,103729.13
2023-01-23T04:01:07.279Z,103730.91
2023-01-23T04:03:33.782Z,103738.91
2023-01-23T04:06:00.596Z,103738.06
2023-01-23T04:08:27.169Z,103736.25
2023-01-23T04:11:01.975Z,103734.47
2023-01-23T04:13:28.619Z,103736.25
2023-01-23T04:15:55.009Z,103739.75
2023-01-23T04:18:21.470Z,103752.25
2023-01-23T04:20:47.999Z,103748.66
2023-01-23T04:23:14.519Z,103753.13
2023-01-23T04:25:40.935Z,103754.91
2023-01-23T04:28:07.371Z,103752.25
2023-01-23T04:30:33.890Z,103752.25
2023-01-23T04:33:00.408Z,103755.81
2023-01-23T04:35:26.959Z,103759.38
2023-01-23T04:37:53.364Z,103763.81
2023-01-23T04:40:20.241Z,103768.31
2023-01-23T04:42:46.889Z,103771.00
2023-01-23T04:45:13.492Z,103767.44
2023-01-23T04:47:39.857Z,103777.19
2023-01-23T04:50:06.549Z,103766.53
2023-01-23T04:52:32.953Z,103759.38
2023-01-23T04:54:59.361Z,103764.72
2023-01-23T04:57:26.159Z,103757.56
2023-01-23T04:59:52.585Z,103757.56
2023-01-23T05:02:19.041Z,103757.56
2023-01-23T05:04:45.480Z,103752.25
2023-01-23T05:07:12.576Z,103754.00
2023-01-23T05:09:40.184Z,103750.50
2023-01-23T05:12:07.105Z,103749.59
2023-01-23T05:14:33.675Z,103758.50
2023-01-23T05:17:00.110Z,103746.91
2023-01-23T05:19:26.583Z,103745.13
2023-01-23T05:21:53.003Z,103748.66
2023-01-23T05:24:19.444Z,103741.53
2023-01-23T05:26:45.949Z,103745.06
2023-01-23T05:29:12.493Z,103741.47
2023-01-23T05:31:39.005Z,103745.88
2023-01-23T05:34:05.436Z,103739.63
2023-01-23T05:36:31.812Z,103736.06
2023-01-23T05:38:58.270Z,103743.19
2023-01-23T05:41:25.729Z,103744.03
2023-01-23T05:43:52.212Z,103747.59
2023-01-23T05:46:18.700Z,103751.13
2023-01-23T05:48:48.831Z,103749.31
2023-01-23T05:51:15.364Z,103746.66
2023-01-23T05:53:41.814Z,103746.66
2023-01-23T05:56:08.549Z,103749.28
2023-01-23T05:58:35.018Z,103750.19
2023-01-23T06:01:05.198Z,103758.22
2023-01-23T06:03:32.023Z,103755.53
2023-01-23T06:06:01.450Z,103767.06
2023-01-23T06:08:28.090Z,103767.97
2023-01-23T06:10:54.603Z,103767.94
2023-01-23T06:13:20.986Z,103772.38
2023-01-23T06:15:47.389Z,103767.06
2023-01-23T06:18:13.964Z,103770.66
2023-01-23T06:20:40.440Z,103772.38
2023-01-23T06:23:06.849Z,103761.72
2023-01-23T06:25:33.272Z,103760.84
2023-01-23T06:27:59.792Z,103759.94
2023-01-23T06:30:26.173Z,103760.84
2023-01-23T06:32:52.574Z,103768.84
2023-01-23T06:35:19.360Z,103779.50
2023-01-23T06:37:45.910Z,103772.38
2023-01-23T06:40:13.368Z,103776.78
2023-01-23T06:42:41.041Z,103778.56
2023-01-23T06:45:09.526Z,103772.34
2023-01-23T06:47:36.657Z,103773.25
2023-01-23T06:50:04.574Z,103775.00
2023-01-23T06:52:31.049Z,103783.91
2023-01-23T06:54:57.411Z,103783.88
2023-01-23T06:57:23.907Z,103779.38
2023-01-23T06:59:50.431Z,103789.13
2023-01-23T07:02:16.850Z,103791.75
2023-01-23T07:04:43.246Z,103802.41
2023-01-23T07:07:09.606Z,103802.38
2023-01-23T07:09:36.044Z,103801.47
2023-01-23T07:12:02.460Z,103808.63
2023-01-23T07:14:28.865Z,103802.41
2023-01-23T07:16:55.643Z,103806.84
2023-01-23T07:19:22.166Z,103807.69
2023-01-23T07:21:49.036Z,103812.13
2023-01-23T07:24:15.503Z,103818.34
2023-01-23T07:26:41.925Z,103813.91
2023-01-23T07:29:11.284Z,103816.53
2023-01-23T07:31:37.802Z,103819.19
2023-01-23T07:34:04.426Z,103819.19
2023-01-23T07:36:31.050Z,103820.13
2023-01-23T07:38:58.981Z,103823.69
2023-01-23T07:41:25.757Z,103830.81
2023-01-23T07:43:52.252Z,103833.50
2023-01-23T07:46:18.739Z,103835.25
2023-01-23T07:48:45.194Z,103837.94
2023-01-23T07:51:12.056Z,103845.06
2023-01-23T07:53:38.511Z,103842.41
2023-01-23T07:56:06.122Z,103848.63
2023-01-23T07:58:32.819Z,103847.75
2023-01-23T08:00:59.459Z,103845.06
2023-01-23T08:03:28.976Z,103846.00
2023-01-23T08:05:55.586Z,103840.72
2023-01-23T08:08:22.067Z,103838.94
2023-01-23T08:10:48.507Z,103851.41
2023-01-23T08:13:14.988Z,103849.69
2023-01-23T08:15:41.664Z,103857.66
2023-01-23T08:18:08.182Z,103863.03
2023-01-23T08:20:34.649Z,103869.31
2023-01-23T08:23:02.283Z,103872.03
2023-01-23T08:25:29.171Z,103877.41
2023-01-23T08:27:55.671Z,103876.59
2023-01-23T08:30:22.500Z,103883.75
2023-01-23T08:32:49.188Z,103887.34
2023-01-23T08:35:16.453Z,103882.09
2023-01-23T08:37:42.968Z,103883.88
2023-01-23T08:40:10.287Z,103880.34
2023-01-23T08:42:36.784Z,103885.69
2023-01-23T08:45:03.627Z,103891.94
2023-01-23T08:47:30.615Z,103894.63
2023-01-23T08:49:57.036Z,103893.75
2023-01-23T08:52:23.433Z,103895.56
2023-01-23T08:54:49.880Z,103896.47
2023-01-23T08:57:16.252Z,103894.72
2023-01-23T08:59:44.291Z,103894.75
2023-01-23T09:02:12.665Z,103900.16
2023-01-23T09:04:39.413Z,103909.09
2023-01-23T09:07:05.852Z,103910.03
2023-01-23T09:09:32.278Z,103907.41
2023-01-23T09:11:58.666Z,103902.06
2023-01-23T09:14:25.053Z,103906.53
2023-01-23T09:16:51.519Z,103909.22
2023-01-23T09:19:17.946Z,103902.13
2023-01-23T09:21:44.636Z,103898.59
2023-01-23T09:24:11.073Z,103902.22
2023-01-23T09:26:38.109Z,103905.72
2023-01-23T09:29:04.545Z,103904.03
2023-01-23T09:31:31.147Z,103907.59
2023-01-23T09:33:57.756Z,103904.09
2023-01-23T09:36:41.395Z,103905.94
2023-01-23T09:39:08.772Z,103902.47
2023-01-23T09:41:35.277Z,103917.66
2023-01-23T09:44:40.350Z,103912.44
2023-01-23T09:47:23.473Z,103916.09
2023-01-23T09:50:14.936Z,103915.28
2023-01-23T09:52:47.594Z,103912.69
2023-01-23T09:55:22.241Z,103920.72
2023-01-23T09:57:55.850Z,103908.34
2023-01-23T10:00:30.007Z,103903.97
2023-01-23T10:02:56.982Z,103908.41
2023-01-23T10:05:36.261Z,103907.63
2023-01-23T10:08:20.611Z,103903.28
2023-01-23T10:11:02.913Z,103907.78
2023-01-23T10:13:54.796Z,103903.38
2023-01-23T10:16:55.252Z,103910.53
2023-01-23T10:19:42.932Z,103910.59
2023-01-23T10:22:23.199Z,103906.09
2023-01-23T10:24:50.963Z,103899.09
2023-01-23T10:27:29.942Z,103900.16
2023-01-23T10:30:14.431Z,103901.16
2023-01-23T10:32:52.745Z,103891.38
2023-01-23T10:35:26.325Z,103901.25
2023-01-23T10:38:02.628Z,103897.72
2023-01-23T10:40:47.510Z,103899.56
2023-01-23T10:43:16.761Z,103900.34
2023-01-23T10:45:44.831Z,103907.50
2023-01-23T10:48:33.572Z,103903.03
2023-01-23T10:51:00.647Z,103899.53
2023-01-23T10:53:27.466Z,103903.09
2023-01-23T10:55:58.192Z,103911.88
2023-01-23T10:58:41.024Z,103906.56
2023-01-23T11:01:26.122Z,103903.91
2023-01-23T11:03:52.943Z,103895.88
2023-01-23T11:06:22.404Z,103907.50
2023-01-23T11:09:03.968Z,103899.56
2023-01-23T11:11:32.330Z,103906.69
2023-01-23T11:14:14.042Z,103906.78
2023-01-23T11:16:40.576Z,103914.88
2023-01-23T11:19:10.031Z,103914.91
2023-01-23T11:21:52.771Z,103909.56
2023-01-23T11:24:27.718Z,103917.66
2023-01-23T11:27:17.633Z,103915.97
2023-01-23T11:30:16.965Z,103924.91
2023-01-23T11:33:08.043Z,103925.75
2023-01-23T11:35:34.422Z,103921.31
2023-01-23T11:38:03.855Z,103919.59
2023-01-23T11:40:30.411Z,103920.50
2023-01-23T11:42:56.991Z,103917.75
2023-01-23T11:45:54.664Z,103916.91
2023-01-23T11:48:40.812Z,103917.78
2023-01-23T11:51:19.567Z,103918.72
2023-01-23T11:54:18.451Z,103921.31
2023-01-23T11:57:03.623Z,103916.03
2023-01-23T11:59:42.149Z,103921.41
2023-01-23T12:02:43.029Z,103928.63
2023-01-23T12:05:33.030Z,103934.69
2023-01-23T12:08:17.759Z,103931.22
2023-01-23T12:10:59.323Z,103936.69
2023-01-23T12:13:34.835Z,103934.00
2023-01-23T12:16:16.516Z,103932.19
2023-01-23T12:19:08.053Z,103942.97
2023-01-23T12:21:46.644Z,103939.38
2023-01-23T12:24:34.494Z,103931.38
2023-01-23T12:27:05.004Z,103946.47
2023-01-23T12:29:55.920Z,103936.56
2023-01-23T12:33:00.119Z,103934.81
2023-01-23T12:36:08.557Z,103931.22
2023-01-23T12:39:03.289Z,103929.34
2023-01-23T12:41:37.798Z,103920.53
2023-01-23T12:44:14.083Z,103928.44
2023-01-23T12:46:55.257Z,103914.19
2023-01-23T12:49:38.852Z,103914.16
2023-01-23T12:52:11.404Z,103903.38
2023-01-23T12:54:45.098Z,103906.03
2023-01-23T12:57:13.057Z,103904.28
2023-01-23T13:00:00.251Z,103901.59
2023-01-23T13:02:32.719Z,103896.22
2023-01-23T13:05:15.987Z,103888.22
2023-01-23T13:07:55.962Z,103887.28
2023-01-23T13:11:19.929Z,103873.00
2023-01-23T13:13:47.160Z,103868.63
2023-01-23T13:16:16.646Z,103858.75
2023-01-23T13:19:15.064Z,103850.66
2023-01-23T13:22:04.711Z,103847.16
2023-01-23T13:25:09.950Z,103841.84
2023-01-23T13:27:47.294Z,103840.88
2023-01-23T13:30:32.964Z,103850.56
2023-01-23T13:33:01.751Z,103849.63
2023-01-23T13:35:40.335Z,103856.72
2023-01-23T13:38:22.138Z,103856.78
2023-01-23T13:41:14.533Z,103850.53
2023-01-23T13:43:49.896Z,103862.16
2023-01-23T14:21:46.360Z,103877.03
2023-01-23T14:24:23.445Z,103870.81
2023-01-23T14:27:07.221Z,103873.50
2023-01-23T14:29:34.750Z,103869.97
2023-01-23T14:32:01.153Z,103875.34
2023-01-23T14:34:27.668Z,103871.75
2023-01-23T14:37:08.392Z,103871.75
2023-01-23T14:39:36.242Z,103871.75
2023-01-23T14:42:05.355Z,103867.34
2023-01-23T14:47:16.670Z,103866.50
2023-01-23T14:49:43.883Z,103879.75
2023-01-23T14:52:23.462Z,103876.88
2023-01-23T14:54:54.125Z,103877.69
2023-01-23T14:57:23.853Z,103883.88
2023-01-23T14:59:55.339Z,103877.69
2023-01-23T15:02:31.419Z,103879.44
2023-01-23T15:05:20.250Z,103882.03
2023-01-23T15:08:15.674Z,103876.59
2023-01-23T15:10:42.174Z,103876.47
2023-01-23T15:13:13.906Z,103876.44
2023-01-23T15:15:46.491Z,103880.81
2023-01-23T15:18:27.572Z,103885.28
2023-01-23T15:21:02.792Z,103889.69
2023-01-23T15:23:31.695Z,103893.22
2023-01-23T15:26:24.134Z,103885.19
2023-01-23T15:28:52.812Z,103876.22
2023-01-23T15:31:35.414Z,103884.19
2023-01-23T15:34:13.867Z,103882.34
2023-01-23T15:36:47.460Z,103886.72
2023-01-23T15:39:20.976Z,103892.97
2023-01-23T15:41:53.264Z,103889.34
2023-01-23T15:44:22.264Z,103898.19
2023-01-23T15:46:48.852Z,103899.09
2023-01-23T15:49:24.779Z,103905.31
2023-01-23T15:51:51.752Z,103899.09
2023-01-23T15:54:26.648Z,103907.91
2023-01-23T15:57:05.419Z,103907.88
2023-01-23T15:59:36.280Z,103906.06
2023-01-23T16:02:03.008Z,103914.91
2023-01-23T16:04:29.417Z,103909.53
2023-01-23T16:06:57.272Z,103923.78
2023-01-23T16:09:30.860Z,103922.84
2023-01-23T16:11:59.808Z,103930.78
2023-01-23T16:14:26.351Z,103928.06
2023-01-23T16:16:53.119Z,103932.47
2023-01-23T16:19:19.645Z,103928.97
2023-01-23T16:21:55.766Z,103936.94
2023-01-23T16:24:27.060Z,103937.81
2023-01-23T16:26:56.483Z,103937.81
2023-01-23T16:29:32.088Z,103941.34
2023-01-23T16:32:01.221Z,103939.56
2023-01-23T16:34:28.442Z,103936.81
2023-01-23T16:36:57.201Z,103933.25
2023-01-23T16:39:27.112Z,103931.41
2023-01-23T16:41:56.267Z,103935.91
2023-01-23T16:44:26.162Z,103941.22
2023-01-23T16:46:53.474Z,103939.44
2023-01-23T16:49:20.744Z,103941.22
2023-01-23T16:51:59.796Z,103938.47
2023-01-23T16:54:26.552Z,103940.22
2023-01-23T16:56:54.778Z,103939.28
2023-01-23T16:59:35.609Z,103937.50
2023-01-23T17:02:12.552Z,103940.19
2023-01-23T17:04:39.071Z,103942.75
2023-01-23T17:07:14.173Z,103943.66
2023-01-23T17:09:40.538Z,103946.25
2023-01-23T17:12:14.869Z,103950.69
2023-01-23T17:14:43.633Z,103947.97
2023-01-23T17:17:19.122Z,103948.88
2023-01-23T17:19:45.821Z,103944.41
2023-01-23T17:22:25.896Z,103951.53
2023-01-23T17:24:52.459Z,103953.31
2023-01-23T17:27:19.105Z,103955.03
2023-01-23T17:29:45.662Z,103955.94
2023-01-23T17:32:28.133Z,103963.94
2023-01-23T17:34:54.938Z,103960.34
2023-01-23T17:37:22.712Z,103955.00
2023-01-23T17:39:49.234Z,103961.25
2023-01-23T17:42:16.036Z,103956.75
2023-01-23T17:44:42.470Z,103958.47
2023-01-23T17:47:12.604Z,103967.41
2023-01-23T17:49:39.949Z,103962.06
2023-01-23T17:52:06.623Z,103968.28
2023-01-23T17:54:33.179Z,103968.28
2023-01-23T17:56:59.881Z,103972.75
2023-01-23T17:59:26.568Z,103966.47
2023-01-23T18:01:53.152Z,103967.41
2023-01-23T18:04:22.155Z,103965.59
2023-01-23T18:06:49.955Z,103967.38
2023-01-23T18:09:17.068Z,103976.25
2023-01-23T18:11:52.369Z,103968.22
2023-01-23T18:14:24.737Z,103970.91
2023-01-23T18:16:51.617Z,103969.09
2023-01-23T18:19:20.760Z,103972.66
2023-01-23T18:21:49.824Z,103972.69
2023-01-23T18:24:30.261Z,103974.44
2023-01-23T18:27:14.950Z,103975.38
2023-01-23T18:30:21.190Z,103974.44
2023-01-23T18:33:21.555Z,103969.09
2023-01-23T18:36:25.689Z,103976.22
2023-01-23T18:39:16.895Z,103970.84
2023-01-23T18:42:13.384Z,103963.72
2023-01-23T18:44:45.308Z,103962.84
2023-01-23T18:47:14.615Z,103956.59
2023-01-23T18:49:41.467Z,103960.19
2023-01-23T18:52:12.757Z,103954.03
2023-01-23T18:54:50.667Z,103954.88
2023-01-23T18:57:32.496Z,103963.72
2023-01-23T19:00:34.295Z,103962.84
2023-01-23T19:03:10.679Z,103956.75
2023-01-23T19:05:37.313Z,103964.69
2023-01-23T19:08:03.915Z,103964.63
2023-01-23T19:10:47.689Z,103966.41
2023-01-23T19:13:20.613Z,103965.50
2023-01-23T19:15:56.672Z,103967.31
2023-01-23T19:18:46.221Z,103971.75
2023-01-23T19:21:23.549Z,103977.06
2023-01-23T19:24:16.745Z,103977.09
2023-01-23T19:26:43.426Z,103984.22
2023-01-23T19:29:21.596Z,103972.66
2023-01-23T19:32:03.637Z,103981.50
2023-01-23T19:34:31.804Z,103980.63
2023-01-23T19:36:58.217Z,103985.00
2023-01-23T19:39:24.584Z,103984.97
2023-01-23T19:41:51.874Z,103985.91
2023-01-23T19:44:20.743Z,103993.06
2023-01-23T19:46:47.625Z,103988.56
2023-01-23T19:49:14.184Z,103990.38
2023-01-23T19:51:41.415Z,103995.69
2023-01-23T19:54:12.407Z,104016.16
2023-01-23T19:56:39.810Z,104002.81
2023-01-23T19:59:07.087Z,104014.34
2023-01-23T20:01:37.036Z,104012.56
2023-01-23T20:04:04.710Z,104012.56
2023-01-23T20:06:33.046Z,104018.81
2023-01-23T20:08:59.838Z,104029.50
2023-01-23T20:11:26.488Z,104022.38
2023-01-23T20:13:52.884Z,104026.81
2023-01-23T20:16:22.073Z,104029.47
2023-01-23T20:18:49.464Z,104026.81
2023-01-23T20:21:17.576Z,104025.94
2023-01-23T20:23:44.860Z,104025.09
2023-01-23T20:26:11.613Z,104027.94
2023-01-23T20:28:38.211Z,104027.97
2023-01-23T20:31:06.426Z,104024.38
2023-01-23T20:33:33.578Z,104021.66
2023-01-23T20:36:00.099Z,104014.50
2023-01-23T20:38:26.560Z,104024.25
2023-01-23T20:40:52.977Z,104019.75
2023-01-23T20:43:19.447Z,104011.84
2023-01-23T20:45:47.349Z,104008.31
2023-01-23T20:48:14.070Z,104008.31
2023-01-23T20:50:40.913Z,104010.09
2023-01-23T20:53:25.714Z,104014.50
2023-01-23T20:55:53.517Z,104012.72
2023-01-23T20:58:38.635Z,104004.72
2023-01-23T21:01:05.234Z,104007.44
2023-01-23T21:03:31.646Z,104008.31
2023-01-23T21:05:58.091Z,104002.16
2023-01-23T21:08:24.508Z,104003.94
2023-01-23T21:10:52.502Z,103995.00
2023-01-23T21:13:20.309Z,103997.72
2023-01-23T21:15:58.096Z,103986.16
2023-01-23T21:18:24.738Z,103998.59
2023-01-23T21:20:51.263Z,103991.53
2023-01-23T21:23:17.987Z,103998.63
2023-01-23T21:25:44.492Z,103996.81
2023-01-23T21:28:11.082Z,103994.16
2023-01-23T21:30:38.637Z,103995.94
2023-01-23T21:33:06.201Z,103993.25
2023-01-23T21:35:32.899Z,103996.84
2023-01-23T21:38:00.061Z,103993.31
2023-01-23T21:40:26.578Z,103996.88
2023-01-23T21:42:52.936Z,104004.88
2023-01-23T21:45:19.748Z,103996.88
2023-01-23T21:47:46.303Z,104001.31
2023-01-23T21:50:12.742Z,104007.53
2023-01-23T21:52:39.153Z,104000.44
2023-01-23T21:55:05.985Z,104000.44
2023-01-23T21:57:32.505Z,104011.13
2023-01-23T22:00:19.129Z,104011.09
2023-01-23T22:02:45.611Z,104011.03
2023-01-23T22:05:12.133Z,104011.94
2023-01-23T22:07:38.716Z,104008.38
2023-01-23T22:10:05.661Z,104020.81
2023-01-23T22:12:32.071Z,104020.00
2023-01-23T22:14:58.504Z,104018.19
2023-01-23T22:17:24.917Z,104018.19
2023-01-23T22:19:51.363Z,104024.38
2023-01-23T22:22:19.013Z,104022.63
2023-01-23T22:24:45.371Z,104028.84
2023-01-23T22:27:11.798Z,104032.41
2023-01-23T22:29:38.268Z,104026.19
2023-01-23T22:32:05.027Z,104027.97
2023-01-23T22:34:31.518Z,104034.19
2023-01-23T22:36:57.951Z,104035.09
2023-01-23T22:39:24.375Z,104037.75
2023-01-23T22:41:50.766Z,104045.69
2023-01-23T22:44:17.611Z,104042.19
2023-01-23T22:46:44.179Z,104043.03
2023-01-23T22:49:10.660Z,104034.16
2023-01-23T22:51:37.354Z,104038.59
2023-01-23T22:54:05.943Z,104035.03
2023-01-23T22:56:32.330Z,104040.38
2023-01-23T22:59:01.117Z,104036.84
2023-01-23T23:01:28.081Z,104037.69
2023-01-23T23:03:57.693Z,104036.84
2023-01-23T23:06:24.319Z,104039.47
2023-01-23T23:08:50.807Z,104041.25
2023-01-23T23:11:22.833Z,104035.00
2023-01-23T23:13:49.884Z,104039.47
2023-01-23T23:16:28.389Z,104039.47
2023-01-23T23:18:56.074Z,104032.38
2023-01-23T23:21:28.201Z,104040.44
2023-01-23T23:23:59.888Z,104028.06
2023-01-23T23:26:27.763Z,104031.66
2023-01-23T23:28:55.085Z,104032.53
2023-01-23T23:31:21.728Z,104029.84
2023-01-23T23:33:48.161Z,104022.72
2023-01-23T23:36:14.629Z,104015.59
2023-01-23T23:38:41.044Z,104010.25
2023-01-23T23:41:11.395Z,104020.00
2023-01-23T23:43:37.955Z,104009.38
2023-01-23T23:46:07.078Z,104014.75
2023-01-23T23:48:35.307Z,104018.38
2023-01-23T23:51:05.100Z,104017.47
2023-01-23T23:53:31.717Z,104015.69
2023-01-23T23:56:18.766Z,104017.44
2023-01-23T23:58:45.197Z,104021.88
